sensor_id;sensor_type;location;lat;lon;timestamp;temperature;humidity
74364;DHT22;62797;49.740;10.154;2023-05-07T00:01:14;13.80;61.10
74364;DHT22;62797;49.740;10.154;2023-05-07T00:03:39;13.80;60.10
74364;DHT22;62797;49.740;10.154;2023-05-07T00:06:05;13.80;62.10
74364;DHT22;62797;49.740;10.154;2023-05-07T00:08:31;13.80;61.40
74364;DHT22;62797;49.740;10.154;2023-05-07T00:10:56;13.70;61.60
74364;DHT22;62797;49.740;10.154;2023-05-07T00:13:22;13.80;62.60
74364;DHT22;62797;49.740;10.154;2023-05-07T00:15:47;13.80;62.60
74364;DHT22;62797;49.740;10.154;2023-05-07T00:18:13;13.90;61.90
74364;DHT22;62797;49.740;10.154;2023-05-07T00:20:38;13.80;62.60
74364;DHT22;62797;49.740;10.154;2023-05-07T00:23:04;13.80;63.10
74364;DHT22;62797;49.740;10.154;2023-05-07T00:25:29;13.80;62.80
74364;DHT22;62797;49.740;10.154;2023-05-07T00:27:55;13.70;63.50
74364;DHT22;62797;49.740;10.154;2023-05-07T00:30:21;13.70;63.90
74364;DHT22;62797;49.740;10.154;2023-05-07T00:32:46;13.70;63.40
74364;DHT22;62797;49.740;10.154;2023-05-07T00:35:14;13.70;63.90
74364;DHT22;62797;49.740;10.154;2023-05-07T00:37:39;13.70;63.80
74364;DHT22;62797;49.740;10.154;2023-05-07T00:40:05;13.70;64.10
74364;DHT22;62797;49.740;10.154;2023-05-07T00:42:32;13.60;64.00
74364;DHT22;62797;49.740;10.154;2023-05-07T00:44:58;13.50;64.90
74364;DHT22;62797;49.740;10.154;2023-05-07T00:47:23;13.50;63.70
74364;DHT22;62797;49.740;10.154;2023-05-07T00:49:50;13.40;65.20
74364;DHT22;62797;49.740;10.154;2023-05-07T00:52:16;13.30;66.00
74364;DHT22;62797;49.740;10.154;2023-05-07T00:54:42;13.30;66.20
74364;DHT22;62797;49.740;10.154;2023-05-07T00:57:09;13.20;65.90
74364;DHT22;62797;49.740;10.154;2023-05-07T00:59:34;13.20;65.70
74364;DHT22;62797;49.740;10.154;2023-05-07T01:02:00;13.10;66.00
74364;DHT22;62797;49.740;10.154;2023-05-07T01:04:26;13.10;66.20
74364;DHT22;62797;49.740;10.154;2023-05-07T01:06:52;13.00;66.30
74364;DHT22;62797;49.740;10.154;2023-05-07T01:09:19;13.00;66.40
74364;DHT22;62797;49.740;10.154;2023-05-07T01:11:45;13.00;65.70
74364;DHT22;62797;49.740;10.154;2023-05-07T01:14:12;13.00;65.60
74364;DHT22;62797;49.740;10.154;2023-05-07T01:16:37;13.00;64.80
74364;DHT22;62797;49.740;10.154;2023-05-07T01:19:03;13.00;64.10
74364;DHT22;62797;49.740;10.154;2023-05-07T01:21:29;13.00;64.60
74364;DHT22;62797;49.740;10.154;2023-05-07T01:23:58;12.90;64.60
74364;DHT22;62797;49.740;10.154;2023-05-07T01:26:23;12.80;64.40
74364;DHT22;62797;49.740;10.154;2023-05-07T01:28:49;12.80;65.20
74364;DHT22;62797;49.740;10.154;2023-05-07T01:31:15;12.70;65.90
74364;DHT22;62797;49.740;10.154;2023-05-07T01:33:42;12.70;66.00
74364;DHT22;62797;49.740;10.154;2023-05-07T01:36:08;12.70;66.00
74364;DHT22;62797;49.740;10.154;2023-05-07T01:38:34;12.70;65.80
74364;DHT22;62797;49.740;10.154;2023-05-07T01:41:01;12.60;66.30
74364;DHT22;62797;49.740;10.154;2023-05-07T01:43:27;12.70;66.10
74364;DHT22;62797;49.740;10.154;2023-05-07T01:45:53;12.60;66.70
74364;DHT22;62797;49.740;10.154;2023-05-07T01:48:19;12.60;65.60
74364;DHT22;62797;49.740;10.154;2023-05-07T01:50:45;12.60;64.90
74364;DHT22;62797;49.740;10.154;2023-05-07T01:53:11;12.60;65.90
74364;DHT22;62797;49.740;10.154;2023-05-07T01:55:37;12.50;66.00
74364;DHT22;62797;49.740;10.154;2023-05-07T01:58:03;12.60;65.50
74364;DHT22;62797;49.740;10.154;2023-05-07T02:00:29;12.50;66.90
74364;DHT22;62797;49.740;10.154;2023-05-07T02:02:54;12.50;66.30
74364;DHT22;62797;49.740;10.154;2023-05-07T02:05:29;12.60;65.80
74364;DHT22;62797;49.740;10.154;2023-05-07T02:08:00;12.40;65.40
74364;DHT22;62797;49.740;10.154;2023-05-07T02:10:28;12.40;67.10
74364;DHT22;62797;49.740;10.154;2023-05-07T02:12:54;12.30;66.40
74364;DHT22;62797;49.740;10.154;2023-05-07T02:15:19;12.30;66.20
74364;DHT22;62797;49.740;10.154;2023-05-07T02:17:58;12.30;66.30
74364;DHT22;62797;49.740;10.154;2023-05-07T02:20:24;12.30;65.20
74364;DHT22;62797;49.740;10.154;2023-05-07T02:22:50;12.20;65.00
74364;DHT22;62797;49.740;10.154;2023-05-07T02:25:15;12.20;66.50
74364;DHT22;62797;49.740;10.154;2023-05-07T02:27:41;12.20;66.20
74364;DHT22;62797;49.740;10.154;2023-05-07T02:30:07;12.20;65.50
74364;DHT22;62797;49.740;10.154;2023-05-07T02:32:33;12.10;65.60
74364;DHT22;62797;49.740;10.154;2023-05-07T02:34:58;12.10;65.70
74364;DHT22;62797;49.740;10.154;2023-05-07T02:37:24;12.10;66.50
74364;DHT22;62797;49.740;10.154;2023-05-07T02:39:50;12.10;66.90
74364;DHT22;62797;49.740;10.154;2023-05-07T02:42:16;12.10;66.60
74364;DHT22;62797;49.740;10.154;2023-05-07T02:44:41;12.10;66.80
74364;DHT22;62797;49.740;10.154;2023-05-07T02:47:07;12.00;67.30
74364;DHT22;62797;49.740;10.154;2023-05-07T02:49:34;12.10;66.50
74364;DHT22;62797;49.740;10.154;2023-05-07T02:52:00;12.00;66.70
74364;DHT22;62797;49.740;10.154;2023-05-07T02:54:25;12.10;66.50
74364;DHT22;62797;49.740;10.154;2023-05-07T02:56:51;12.10;66.70
74364;DHT22;62797;49.740;10.154;2023-05-07T02:59:16;12.10;65.90
74364;DHT22;62797;49.740;10.154;2023-05-07T03:01:42;12.10;65.90
74364;DHT22;62797;49.740;10.154;2023-05-07T03:04:10;12.10;66.50
74364;DHT22;62797;49.740;10.154;2023-05-07T03:06:36;12.10;66.60
74364;DHT22;62797;49.740;10.154;2023-05-07T03:09:02;12.10;67.00
74364;DHT22;62797;49.740;10.154;2023-05-07T03:11:28;12.20;67.10
74364;DHT22;62797;49.740;10.154;2023-05-07T03:13:55;12.30;66.80
74364;DHT22;62797;49.740;10.154;2023-05-07T03:16:21;12.20;66.40
74364;DHT22;62797;49.740;10.154;2023-05-07T03:18:47;12.30;65.90
74364;DHT22;62797;49.740;10.154;2023-05-07T03:21:15;12.30;66.20
74364;DHT22;62797;49.740;10.154;2023-05-07T03:23:40;12.30;66.00
74364;DHT22;62797;49.740;10.154;2023-05-07T03:26:07;12.40;66.70
74364;DHT22;62797;49.740;10.154;2023-05-07T03:28:32;12.30;66.30
74364;DHT22;62797;49.740;10.154;2023-05-07T03:31:02;12.40;66.10
74364;DHT22;62797;49.740;10.154;2023-05-07T03:33:29;12.40;66.10
74364;DHT22;62797;49.740;10.154;2023-05-07T03:35:55;12.40;66.30
74364;DHT22;62797;49.740;10.154;2023-05-07T03:38:23;12.40;66.50
74364;DHT22;62797;49.740;10.154;2023-05-07T03:40:49;12.50;66.00
74364;DHT22;62797;49.740;10.154;2023-05-07T03:43:15;12.50;65.70
74364;DHT22;62797;49.740;10.154;2023-05-07T03:45:46;12.50;65.60
74364;DHT22;62797;49.740;10.154;2023-05-07T03:48:16;12.50;66.00
74364;DHT22;62797;49.740;10.154;2023-05-07T03:50:42;12.50;66.80
74364;DHT22;62797;49.740;10.154;2023-05-07T03:53:08;12.50;66.10
74364;DHT22;62797;49.740;10.154;2023-05-07T03:55:37;12.50;65.90
74364;DHT22;62797;49.740;10.154;2023-05-07T03:58:04;12.60;63.90
74364;DHT22;62797;49.740;10.154;2023-05-07T04:00:30;12.70;65.20
74364;DHT22;62797;49.740;10.154;2023-05-07T04:02:59;12.70;65.10
74364;DHT22;62797;49.740;10.154;2023-05-07T04:05:28;12.70;65.60
74364;DHT22;62797;49.740;10.154;2023-05-07T04:07:58;12.80;64.10
74364;DHT22;62797;49.740;10.154;2023-05-07T04:10:31;12.90;62.50
74364;DHT22;62797;49.740;10.154;2023-05-07T04:13:02;12.90;64.60
74364;DHT22;62797;49.740;10.154;2023-05-07T04:15:27;12.90;64.80
74364;DHT22;62797;49.740;10.154;2023-05-07T04:17:54;12.90;65.20
74364;DHT22;62797;49.740;10.154;2023-05-07T04:20:22;12.80;65.60
74364;DHT22;62797;49.740;10.154;2023-05-07T04:22:54;12.80;65.80
74364;DHT22;62797;49.740;10.154;2023-05-07T04:25:19;12.90;65.40
74364;DHT22;62797;49.740;10.154;2023-05-07T04:27:45;13.00;64.80
74364;DHT22;62797;49.740;10.154;2023-05-07T04:30:12;13.00;65.60
74364;DHT22;62797;49.740;10.154;2023-05-07T04:32:38;13.00;65.60
74364;DHT22;62797;49.740;10.154;2023-05-07T04:35:04;13.10;66.40
74364;DHT22;62797;49.740;10.154;2023-05-07T04:37:31;13.10;66.20
74364;DHT22;62797;49.740;10.154;2023-05-07T04:39:57;13.10;66.10
74364;DHT22;62797;49.740;10.154;2023-05-07T04:42:23;13.20;65.90
74364;DHT22;62797;49.740;10.154;2023-05-07T04:44:52;13.30;65.20
74364;DHT22;62797;49.740;10.154;2023-05-07T04:47:17;13.30;65.30
74364;DHT22;62797;49.740;10.154;2023-05-07T04:49:43;13.30;65.30
74364;DHT22;62797;49.740;10.154;2023-05-07T04:52:10;13.40;64.60
74364;DHT22;62797;49.740;10.154;2023-05-07T04:54:36;13.50;64.30
74364;DHT22;62797;49.740;10.154;2023-05-07T04:57:03;13.60;64.00
74364;DHT22;62797;49.740;10.154;2023-05-07T04:59:29;13.70;63.20
74364;DHT22;62797;49.740;10.154;2023-05-07T05:01:54;13.80;62.50
74364;DHT22;62797;49.740;10.154;2023-05-07T05:04:20;13.90;62.30
74364;DHT22;62797;49.740;10.154;2023-05-07T05:06:46;13.90;60.80
74364;DHT22;62797;49.740;10.154;2023-05-07T05:09:13;14.00;60.90
74364;DHT22;62797;49.740;10.154;2023-05-07T05:11:40;14.10;60.70
74364;DHT22;62797;49.740;10.154;2023-05-07T05:14:06;14.10;59.80
74364;DHT22;62797;49.740;10.154;2023-05-07T05:16:31;14.20;58.90
74364;DHT22;62797;49.740;10.154;2023-05-07T05:18:57;14.30;58.50
74364;DHT22;62797;49.740;10.154;2023-05-07T05:21:23;14.40;58.70
74364;DHT22;62797;49.740;10.154;2023-05-07T05:23:53;14.40;58.60
74364;DHT22;62797;49.740;10.154;2023-05-07T05:26:22;14.40;58.60
74364;DHT22;62797;49.740;10.154;2023-05-07T05:28:47;14.40;58.50
74364;DHT22;62797;49.740;10.154;2023-05-07T05:31:15;14.50;58.00
74364;DHT22;62797;49.740;10.154;2023-05-07T05:33:42;14.50;57.30
74364;DHT22;62797;49.740;10.154;2023-05-07T05:36:11;14.60;57.70
74364;DHT22;62797;49.740;10.154;2023-05-07T05:38:38;14.60;57.40
74364;DHT22;62797;49.740;10.154;2023-05-07T05:41:05;14.60;56.50
74364;DHT22;62797;49.740;10.154;2023-05-07T05:43:30;14.70;56.60
74364;DHT22;62797;49.740;10.154;2023-05-07T05:45:56;14.80;56.70
74364;DHT22;62797;49.740;10.154;2023-05-07T05:48:22;14.80;56.60
74364;DHT22;62797;49.740;10.154;2023-05-07T05:50:48;14.90;55.90
74364;DHT22;62797;49.740;10.154;2023-05-07T05:53:15;15.10;55.90
74364;DHT22;62797;49.740;10.154;2023-05-07T05:55:41;15.10;54.90
74364;DHT22;62797;49.740;10.154;2023-05-07T05:58:08;15.10;55.30
74364;DHT22;62797;49.740;10.154;2023-05-07T06:00:38;15.30;55.50
74364;DHT22;62797;49.740;10.154;2023-05-07T06:03:05;15.40;54.70
74364;DHT22;62797;49.740;10.154;2023-05-07T06:05:30;15.40;55.00
74364;DHT22;62797;49.740;10.154;2023-05-07T06:07:56;15.40;54.70
74364;DHT22;62797;49.740;10.154;2023-05-07T06:10:22;15.40;54.40
74364;DHT22;62797;49.740;10.154;2023-05-07T06:12:48;15.50;55.00
74364;DHT22;62797;49.740;10.154;2023-05-07T06:15:14;15.50;55.00
74364;DHT22;62797;49.740;10.154;2023-05-07T06:17:41;15.60;53.50
74364;DHT22;62797;49.740;10.154;2023-05-07T06:20:09;15.60;53.40
74364;DHT22;62797;49.740;10.154;2023-05-07T06:22:35;15.50;54.50
74364;DHT22;62797;49.740;10.154;2023-05-07T06:25:02;15.60;52.90
74364;DHT22;62797;49.740;10.154;2023-05-07T06:27:28;15.60;52.80
74364;DHT22;62797;49.740;10.154;2023-05-07T06:29:54;15.60;53.30
74364;DHT22;62797;49.740;10.154;2023-05-07T06:32:19;15.70;53.10
74364;DHT22;62797;49.740;10.154;2023-05-07T06:34:45;15.70;52.70
74364;DHT22;62797;49.740;10.154;2023-05-07T06:37:12;15.80;52.30
74364;DHT22;62797;49.740;10.154;2023-05-07T06:39:58;15.90;52.00
74364;DHT22;62797;49.740;10.154;2023-05-07T06:42:24;15.90;52.70
74364;DHT22;62797;49.740;10.154;2023-05-07T06:44:52;16.00;52.50
74364;DHT22;62797;49.740;10.154;2023-05-07T06:47:17;16.10;51.80
74364;DHT22;62797;49.740;10.154;2023-05-07T06:49:46;16.10;51.60
74364;DHT22;62797;49.740;10.154;2023-05-07T06:52:15;16.20;51.50
74364;DHT22;62797;49.740;10.154;2023-05-07T06:54:41;16.40;50.10
74364;DHT22;62797;49.740;10.154;2023-05-07T06:57:07;16.40;50.60
74364;DHT22;62797;49.740;10.154;2023-05-07T06:59:34;16.40;50.40
74364;DHT22;62797;49.740;10.154;2023-05-07T07:02:02;16.50;49.00
74364;DHT22;62797;49.740;10.154;2023-05-07T07:04:28;16.50;49.90
74364;DHT22;62797;49.740;10.154;2023-05-07T07:07:01;16.60;50.10
74364;DHT22;62797;49.740;10.154;2023-05-07T07:09:27;16.60;48.40
74364;DHT22;62797;49.740;10.154;2023-05-07T07:11:54;16.80;48.80
74364;DHT22;62797;49.740;10.154;2023-05-07T07:14:20;16.80;47.90
74364;DHT22;62797;49.740;10.154;2023-05-07T07:16:49;16.90;47.80
74364;DHT22;62797;49.740;10.154;2023-05-07T07:19:17;17.00;46.90
74364;DHT22;62797;49.740;10.154;2023-05-07T07:21:43;17.00;46.70
74364;DHT22;62797;49.740;10.154;2023-05-07T07:24:14;16.90;47.80
74364;DHT22;62797;49.740;10.154;2023-05-07T07:26:45;17.00;46.20
74364;DHT22;62797;49.740;10.154;2023-05-07T07:29:12;17.10;45.90
74364;DHT22;62797;49.740;10.154;2023-05-07T07:31:39;17.10;46.70
74364;DHT22;62797;49.740;10.154;2023-05-07T07:34:06;17.10;44.30
74364;DHT22;62797;49.740;10.154;2023-05-07T07:36:31;17.10;44.40
74364;DHT22;62797;49.740;10.154;2023-05-07T07:38:57;17.10;44.60
74364;DHT22;62797;49.740;10.154;2023-05-07T07:41:22;17.30;44.80
74364;DHT22;62797;49.740;10.154;2023-05-07T07:43:49;17.30;46.10
74364;DHT22;62797;49.740;10.154;2023-05-07T07:46:17;17.30;45.00
74364;DHT22;62797;49.740;10.154;2023-05-07T07:48:43;17.40;44.50
74364;DHT22;62797;49.740;10.154;2023-05-07T07:51:08;17.50;43.20
74364;DHT22;62797;49.740;10.154;2023-05-07T07:53:34;17.60;41.50
74364;DHT22;62797;49.740;10.154;2023-05-07T07:56:00;17.70;41.00
74364;DHT22;62797;49.740;10.154;2023-05-07T07:58:30;17.70;41.00
74364;DHT22;62797;49.740;10.154;2023-05-07T08:00:56;17.80;40.40
74364;DHT22;62797;49.740;10.154;2023-05-07T08:03:23;17.90;41.30
74364;DHT22;62797;49.740;10.154;2023-05-07T08:05:53;18.10;41.00
74364;DHT22;62797;49.740;10.154;2023-05-07T08:08:18;18.10;40.40
74364;DHT22;62797;49.740;10.154;2023-05-07T08:10:45;18.20;38.80
74364;DHT22;62797;49.740;10.154;2023-05-07T08:13:18;18.40;38.40
74364;DHT22;62797;49.740;10.154;2023-05-07T08:15:44;18.60;38.60
74364;DHT22;62797;49.740;10.154;2023-05-07T08:18:11;18.60;37.90
74364;DHT22;62797;49.740;10.154;2023-05-07T08:20:37;18.70;38.60
74364;DHT22;62797;49.740;10.154;2023-05-07T08:23:06;18.80;36.30
74364;DHT22;62797;49.740;10.154;2023-05-07T08:25:33;18.80;36.60
74364;DHT22;62797;49.740;10.154;2023-05-07T08:27:59;18.90;36.00
74364;DHT22;62797;49.740;10.154;2023-05-07T08:30:25;19.00;35.40
74364;DHT22;62797;49.740;10.154;2023-05-07T08:32:51;19.00;36.60
74364;DHT22;62797;49.740;10.154;2023-05-07T08:35:17;19.20;35.20
74364;DHT22;62797;49.740;10.154;2023-05-07T08:37:43;19.20;35.30
74364;DHT22;62797;49.740;10.154;2023-05-07T08:40:09;19.30;35.50
74364;DHT22;62797;49.740;10.154;2023-05-07T08:42:36;19.40;34.30
74364;DHT22;62797;49.740;10.154;2023-05-07T08:45:03;19.40;34.10
74364;DHT22;62797;49.740;10.154;2023-05-07T08:47:34;19.50;34.50
74364;DHT22;62797;49.740;10.154;2023-05-07T08:50:01;19.50;33.30
74364;DHT22;62797;49.740;10.154;2023-05-07T08:52:27;19.50;33.90
74364;DHT22;62797;49.740;10.154;2023-05-07T08:54:53;19.50;34.00
74364;DHT22;62797;49.740;10.154;2023-05-07T08:57:19;19.50;34.70
74364;DHT22;62797;49.740;10.154;2023-05-07T08:59:45;19.50;33.80
74364;DHT22;62797;49.740;10.154;2023-05-07T09:02:11;19.50;33.70
74364;DHT22;62797;49.740;10.154;2023-05-07T09:04:38;19.60;34.00
74364;DHT22;62797;49.740;10.154;2023-05-07T09:07:04;19.60;35.00
74364;DHT22;62797;49.740;10.154;2023-05-07T09:09:32;19.80;35.00
74364;DHT22;62797;49.740;10.154;2023-05-07T09:11:59;19.90;33.80
74364;DHT22;62797;49.740;10.154;2023-05-07T09:14:26;20.10;32.60
74364;DHT22;62797;49.740;10.154;2023-05-07T09:16:53;20.20;34.00
74364;DHT22;62797;49.740;10.154;2023-05-07T09:19:22;20.30;35.30
74364;DHT22;62797;49.740;10.154;2023-05-07T09:21:48;20.40;34.00
74364;DHT22;62797;49.740;10.154;2023-05-07T09:24:15;20.50;32.00
74364;DHT22;62797;49.740;10.154;2023-05-07T09:26:40;20.50;32.40
74364;DHT22;62797;49.740;10.154;2023-05-07T09:29:07;20.50;31.90
74364;DHT22;62797;49.740;10.154;2023-05-07T09:31:38;20.70;30.90
74364;DHT22;62797;49.740;10.154;2023-05-07T09:34:05;20.70;30.80
74364;DHT22;62797;49.740;10.154;2023-05-07T09:36:32;20.80;31.40
74364;DHT22;62797;49.740;10.154;2023-05-07T09:39:01;21.10;30.30
74364;DHT22;62797;49.740;10.154;2023-05-07T09:41:27;21.30;29.60
74364;DHT22;62797;49.740;10.154;2023-05-07T09:44:17;21.50;29.20
74364;DHT22;62797;49.740;10.154;2023-05-07T09:46:50;21.50;28.90
74364;DHT22;62797;49.740;10.154;2023-05-07T09:49:26;21.50;29.10
74364;DHT22;62797;49.740;10.154;2023-05-07T09:52:00;21.50;28.80
74364;DHT22;62797;49.740;10.154;2023-05-07T09:54:28;21.50;29.50
74364;DHT22;62797;49.740;10.154;2023-05-07T09:56:55;21.60;29.90
74364;DHT22;62797;49.740;10.154;2023-05-07T09:59:24;21.60;28.30
74364;DHT22;62797;49.740;10.154;2023-05-07T10:01:51;21.80;28.20
74364;DHT22;62797;49.740;10.154;2023-05-07T10:04:18;21.70;28.10
74364;DHT22;62797;49.740;10.154;2023-05-07T10:06:45;21.80;28.70
74364;DHT22;62797;49.740;10.154;2023-05-07T10:09:11;21.90;28.20
74364;DHT22;62797;49.740;10.154;2023-05-07T10:11:38;22.10;28.30
74364;DHT22;62797;49.740;10.154;2023-05-07T10:14:04;22.00;29.10
74364;DHT22;62797;49.740;10.154;2023-05-07T10:16:34;22.00;28.10
74364;DHT22;62797;49.740;10.154;2023-05-07T10:19:05;22.00;28.10
74364;DHT22;62797;49.740;10.154;2023-05-07T10:21:44;22.10;27.90
74364;DHT22;62797;49.740;10.154;2023-05-07T10:24:19;22.40;28.30
74364;DHT22;62797;49.740;10.154;2023-05-07T10:26:45;22.70;27.50
74364;DHT22;62797;49.740;10.154;2023-05-07T10:29:30;22.70;26.70
74364;DHT22;62797;49.740;10.154;2023-05-07T10:32:02;22.80;27.10
74364;DHT22;62797;49.740;10.154;2023-05-07T10:34:32;23.10;26.70
74364;DHT22;62797;49.740;10.154;2023-05-07T10:37:00;23.00;25.70
74364;DHT22;62797;49.740;10.154;2023-05-07T10:39:28;22.90;26.20
74364;DHT22;62797;49.740;10.154;2023-05-07T10:41:53;22.80;27.00
74364;DHT22;62797;49.740;10.154;2023-05-07T10:44:26;22.90;27.30
74364;DHT22;62797;49.740;10.154;2023-05-07T10:47:08;23.10;27.10
74364;DHT22;62797;49.740;10.154;2023-05-07T10:49:36;23.40;26.80
74364;DHT22;62797;49.740;10.154;2023-05-07T10:52:20;23.40;25.90
74364;DHT22;62797;49.740;10.154;2023-05-07T10:57:47;23.70;23.30
74364;DHT22;62797;49.740;10.154;2023-05-07T11:00:40;23.70;25.70
74364;DHT22;62797;49.740;10.154;2023-05-07T11:03:11;23.60;24.70
74364;DHT22;62797;49.740;10.154;2023-05-07T11:05:42;23.50;23.60
74364;DHT22;62797;49.740;10.154;2023-05-07T11:08:15;23.60;24.00
74364;DHT22;62797;49.740;10.154;2023-05-07T11:11:01;23.60;24.30
74364;DHT22;62797;49.740;10.154;2023-05-07T11:13:53;23.80;24.20
74364;DHT22;62797;49.740;10.154;2023-05-07T11:16:39;23.90;24.00
74364;DHT22;62797;49.740;10.154;2023-05-07T11:19:15;24.20;23.70
74364;DHT22;62797;49.740;10.154;2023-05-07T11:21:45;24.50;23.20
74364;DHT22;62797;49.740;10.154;2023-05-07T11:24:27;24.80;21.80
74364;DHT22;62797;49.740;10.154;2023-05-07T11:27:03;24.60;22.20
74364;DHT22;62797;49.740;10.154;2023-05-07T11:29:30;24.70;21.50
74364;DHT22;62797;49.740;10.154;2023-05-07T11:32:02;24.80;20.10
74364;DHT22;62797;49.740;10.154;2023-05-07T11:34:36;24.80;19.80
74364;DHT22;62797;49.740;10.154;2023-05-07T11:37:02;25.00;20.10
74364;DHT22;62797;49.740;10.154;2023-05-07T11:39:43;25.10;20.70
74364;DHT22;62797;49.740;10.154;2023-05-07T11:44:52;25.20;19.70
74364;DHT22;62797;49.740;10.154;2023-05-07T11:47:18;25.20;18.80
74364;DHT22;62797;49.740;10.154;2023-05-07T11:49:46;25.20;19.50
74364;DHT22;62797;49.740;10.154;2023-05-07T11:52:13;25.20;18.30
74364;DHT22;62797;49.740;10.154;2023-05-07T11:54:38;25.50;19.00
74364;DHT22;62797;49.740;10.154;2023-05-07T11:57:04;25.60;18.90
74364;DHT22;62797;49.740;10.154;2023-05-07T11:59:37;25.50;17.90
74364;DHT22;62797;49.740;10.154;2023-05-07T12:02:03;25.40;19.40
74364;DHT22;62797;49.740;10.154;2023-05-07T12:04:29;25.40;18.70
74364;DHT22;62797;49.740;10.154;2023-05-07T12:06:55;25.30;19.40
74364;DHT22;62797;49.740;10.154;2023-05-07T12:09:21;25.30;17.70
74364;DHT22;62797;49.740;10.154;2023-05-07T12:11:47;25.10;19.50
74364;DHT22;62797;49.740;10.154;2023-05-07T12:14:13;25.10;18.90
74364;DHT22;62797;49.740;10.154;2023-05-07T12:16:39;25.20;19.10
74364;DHT22;62797;49.740;10.154;2023-05-07T12:19:05;25.20;19.30
74364;DHT22;62797;49.740;10.154;2023-05-07T12:21:33;25.00;19.10
74364;DHT22;62797;49.740;10.154;2023-05-07T12:23:59;24.80;18.60
74364;DHT22;62797;49.740;10.154;2023-05-07T12:26:24;25.00;20.10
74364;DHT22;62797;49.740;10.154;2023-05-07T12:28:51;25.20;17.90
74364;DHT22;62797;49.740;10.154;2023-05-07T12:31:16;25.20;18.60
74364;DHT22;62797;49.740;10.154;2023-05-07T12:33:42;25.20;18.00
74364;DHT22;62797;49.740;10.154;2023-05-07T12:36:07;25.10;17.50
74364;DHT22;62797;49.740;10.154;2023-05-07T12:38:37;25.20;19.40
74364;DHT22;62797;49.740;10.154;2023-05-07T12:41:03;25.70;18.30
74364;DHT22;62797;49.740;10.154;2023-05-07T12:43:29;25.90;16.10
74364;DHT22;62797;49.740;10.154;2023-05-07T12:45:55;25.90;15.90
74364;DHT22;62797;49.740;10.154;2023-05-07T12:48:21;25.80;16.80
74364;DHT22;62797;49.740;10.154;2023-05-07T12:50:50;25.70;15.50
74364;DHT22;62797;49.740;10.154;2023-05-07T12:53:16;25.60;16.00
74364;DHT22;62797;49.740;10.154;2023-05-07T12:55:45;25.70;15.60
74364;DHT22;62797;49.740;10.154;2023-05-07T13:00:43;25.80;16.30
74364;DHT22;62797;49.740;10.154;2023-05-07T13:03:09;25.80;15.90
74364;DHT22;62797;49.740;10.154;2023-05-07T13:05:35;25.70;16.00
74364;DHT22;62797;49.740;10.154;2023-05-07T13:08:00;25.70;15.90
74364;DHT22;62797;49.740;10.154;2023-05-07T13:10:26;25.70;15.50
74364;DHT22;62797;49.740;10.154;2023-05-07T13:12:55;25.90;15.70
74364;DHT22;62797;49.740;10.154;2023-05-07T13:15:21;26.00;14.90
74364;DHT22;62797;49.740;10.154;2023-05-07T13:17:47;26.20;15.80
74364;DHT22;62797;49.740;10.154;2023-05-07T13:20:12;26.20;15.70
74364;DHT22;62797;49.740;10.154;2023-05-07T13:22:38;26.30;15.40
74364;DHT22;62797;49.740;10.154;2023-05-07T13:25:04;26.40;14.50
74364;DHT22;62797;49.740;10.154;2023-05-07T13:27:30;26.70;16.10
74364;DHT22;62797;49.740;10.154;2023-05-07T13:29:56;26.80;14.80
74364;DHT22;62797;49.740;10.154;2023-05-07T13:32:22;27.00;13.80
74364;DHT22;62797;49.740;10.154;2023-05-07T13:34:47;27.20;13.90
74364;DHT22;62797;49.740;10.154;2023-05-07T13:37:13;27.40;13.30
74364;DHT22;62797;49.740;10.154;2023-05-07T13:39:38;27.50;14.00
74364;DHT22;62797;49.740;10.154;2023-05-07T13:42:04;27.60;13.00
74364;DHT22;62797;49.740;10.154;2023-05-07T13:44:29;27.60;13.00
74364;DHT22;62797;49.740;10.154;2023-05-07T13:46:55;27.80;13.10
74364;DHT22;62797;49.740;10.154;2023-05-07T13:49:21;27.90;14.30
74364;DHT22;62797;49.740;10.154;2023-05-07T13:51:46;27.90;13.10
74364;DHT22;62797;49.740;10.154;2023-05-07T13:54:12;28.00;11.90
74364;DHT22;62797;49.740;10.154;2023-05-07T13:56:37;27.80;15.00
74364;DHT22;62797;49.740;10.154;2023-05-07T13:59:03;28.00;12.00
74364;DHT22;62797;49.740;10.154;2023-05-07T14:01:28;28.00;12.10
74364;DHT22;62797;49.740;10.154;2023-05-07T14:03:55;28.00;11.30
74364;DHT22;62797;49.740;10.154;2023-05-07T14:06:20;28.00;11.40
74364;DHT22;62797;49.740;10.154;2023-05-07T14:08:48;27.80;11.70
74364;DHT22;62797;49.740;10.154;2023-05-07T14:11:13;27.50;12.10
74364;DHT22;62797;49.740;10.154;2023-05-07T14:13:39;27.20;12.70
74364;DHT22;62797;49.740;10.154;2023-05-07T14:16:04;27.20;13.00
74364;DHT22;62797;49.740;10.154;2023-05-07T14:18:30;27.30;12.50
74364;DHT22;62797;49.740;10.154;2023-05-07T14:20:56;27.40;12.60
74364;DHT22;62797;49.740;10.154;2023-05-07T14:23:21;27.70;11.10
74364;DHT22;62797;49.740;10.154;2023-05-07T14:25:54;27.90;12.30
74364;DHT22;62797;49.740;10.154;2023-05-07T14:28:21;28.20;12.20
74364;DHT22;62797;49.740;10.154;2023-05-07T14:30:47;28.40;12.20
74364;DHT22;62797;49.740;10.154;2023-05-07T14:33:13;28.50;11.70
74364;DHT22;62797;49.740;10.154;2023-05-07T14:35:38;28.40;11.30
74364;DHT22;62797;49.740;10.154;2023-05-07T14:38:04;28.30;13.00
74364;DHT22;62797;49.740;10.154;2023-05-07T14:40:30;28.00;13.40
74364;DHT22;62797;49.740;10.154;2023-05-07T14:42:55;27.80;11.50
74364;DHT22;62797;49.740;10.154;2023-05-07T14:45:22;27.70;12.30
74364;DHT22;62797;49.740;10.154;2023-05-07T14:47:48;27.60;13.60
74364;DHT22;62797;49.740;10.154;2023-05-07T14:50:13;27.60;12.30
74364;DHT22;62797;49.740;10.154;2023-05-07T14:52:39;27.70;14.10
74364;DHT22;62797;49.740;10.154;2023-05-07T14:55:04;28.00;12.90
74364;DHT22;62797;49.740;10.154;2023-05-07T14:57:30;28.30;12.70
74364;DHT22;62797;49.740;10.154;2023-05-07T15:00:00;28.40;11.20
74364;DHT22;62797;49.740;10.154;2023-05-07T15:02:26;28.40;12.40
74364;DHT22;62797;49.740;10.154;2023-05-07T15:04:51;28.50;11.80
74364;DHT22;62797;49.740;10.154;2023-05-07T15:07:17;28.30;12.20
74364;DHT22;62797;49.740;10.154;2023-05-07T15:09:43;28.00;11.40
74364;DHT22;62797;49.740;10.154;2023-05-07T15:12:08;27.60;11.40
74364;DHT22;62797;49.740;10.154;2023-05-07T15:14:34;27.30;12.30
74364;DHT22;62797;49.740;10.154;2023-05-07T15:17:00;27.10;12.60
74364;DHT22;62797;49.740;10.154;2023-05-07T15:19:25;26.90;11.80
74364;DHT22;62797;49.740;10.154;2023-05-07T15:21:57;26.60;12.70
74364;DHT22;62797;49.740;10.154;2023-05-07T15:24:26;26.30;12.90